Time,TemperatureF,DewpointF,PressureIn,WindDirection,WindDirectionDegrees,WindSpeedMPH,WindSpeedGustMPH,Humidity,HourlyPrecipIn,Conditions,Clouds,dailyrainin,SolarRadiationWatts/m^2,SoftwareType,DateUTC
2015-01-30 08:08:00,18.0,18.0,30.45,ESE,112,0.0,1.0,100,0.00,OVC,,0.00,0.0,WeatherDisplay:10.37,2015-01-30 14:08:00,
2015-01-30 08:13:00,18.7,15.7,30.45,ESE,112,1.7,1.7,88,0.00,OVC,,0.00,0.0,WeatherDisplay:10.37,2015-01-30 14:13:00,
2015-01-30 08:19:00,19.4,16.7,30.45,East,90,2.8,2.8,89,0.00,OVC,,0.00,0.0,WeatherDisplay:10.37,2015-01-30 14:19:00,
2015-01-30 08:24:00,20.1,17.7,30.42,ENE,68,2.6,2.6,90,0.00,OVC,,0.00,0.0,WeatherDisplay:10.37,2015-01-30 14:24:00,
2015-01-30 08:29:00,21.0,18.8,30.42,East,90,3.5,3.5,91,0.00,OVC,,0.00,0.0,WeatherDisplay:10.37,2015-01-30 14:29:00,
2015-01-30 08:30:00,21.4,19.2,30.42,ESE,112,3.5,3.5,91,0.00,OVC,,0.00,0.0,WeatherDisplay:10.37,2015-01-30 14:30:00,
2015-01-30 08:34:00,21.4,19.2,30.42,ESE,112,3.5,3.5,91,0.00,OVC,,0.00,0.0,WeatherDisplay:10.37,2015-01-30 14:34:00,
2015-01-30 08:39:00,21.4,19.2,30.42,ESE,112,3.5,3.5,91,0.00,OVC,,0.00,0.0,WeatherDisplay:10.37,2015-01-30 14:39:00,
2015-01-30 09:28:00,21.4,19.2,30.42,ESE,112,3.5,3.5,91,0.00,OVC,,0.00,0.0,WeatherDisplay:10.37,2015-01-30 15:28:00,
2015-01-30 09:33:00,21.4,19.2,30.42,ESE,112,3.5,3.5,91,0.00,OVC,,0.00,0.0,WeatherDisplay:10.37,2015-01-30 15:33:00,
2015-01-30 10:01:00,28.4,20.2,30.45,ENE,68,6.7,6.7,71,0.00,OVC,,0.00,100.0,WeatherDisplay:10.37,2015-01-30 16:01:00,
2015-01-30 10:06:00,28.6,26.0,30.45,ESE,112,4.6,4.6,90,0.00,OVC,,0.00,100.0,WeatherDisplay:10.37,2015-01-30 16:06:00,
2015-01-30 10:12:00,28.9,26.4,30.45,ESE,112,6.9,6.9,90,0.00,OVC,,0.00,100.0,WeatherDisplay:10.37,2015-01-30 16:12:00,
2015-01-30 10:17:00,29.3,26.5,30.45,ENE,68,5.8,5.8,89,0.00,OVC,,0.00,100.0,WeatherDisplay:10.37,2015-01-30 16:17:00,
2015-01-30 10:22:00,29.3,26.5,30.45,ENE,68,4.6,4.6,89,0.00,OVC,,0.00,100.0,WeatherDisplay:10.37,2015-01-30 16:22:00,
2015-01-30 10:27:00,29.3,26.5,30.45,ENE,68,4.6,4.6,89,0.00,OVC,,0.00,100.0,WeatherDisplay:10.37,2015-01-30 16:27:00,
2015-01-30 10:30:00,29.3,26.5,30.45,ENE,68,4.6,4.6,89,0.00,OVC,,0.00,100.0,WeatherDisplay:10.37,2015-01-30 16:30:00,
2015-01-30 10:32:00,29.3,26.5,30.45,ENE,68,4.6,4.6,89,0.00,OVC,,0.00,100.0,WeatherDisplay:10.37,2015-01-30 16:32:00,
2015-01-30 10:37:00,29.3,26.5,30.45,ENE,68,4.6,4.6,89,0.00,OVC,,0.00,100.0,WeatherDisplay:10.37,2015-01-30 16:37:00,
2015-01-30 11:28:00,29.3,26.5,30.45,ENE,68,4.6,4.6,89,0.00,OVC,,0.00,100.0,WeatherDisplay:10.37,2015-01-30 17:28:00,
2015-01-30 11:33:00,29.3,26.5,30.45,ENE,68,4.6,4.6,89,0.00,OVC,,0.00,100.0,WeatherDisplay:10.37,2015-01-30 17:33:00,
2015-01-30 11:39:00,29.3,26.5,30.45,ENE,68,4.6,4.6,89,0.00,OVC,,0.00,100.0,WeatherDisplay:10.37,2015-01-30 17:39:00,
2015-01-30 12:02:00,35.8,24.0,30.45,SSE,158,6.9,6.9,62,0.00,OVC,,0.00,200.0,WeatherDisplay:10.37,2015-01-30 18:02:00,
2015-01-30 12:07:00,36.9,31.9,30.45,ENE,68,3.5,3.5,82,0.00,OVC,,0.00,200.0,WeatherDisplay:10.37,2015-01-30 18:07:00,
2015-01-30 12:12:00,36.5,31.5,30.45,ENE,68,2.8,2.8,82,0.00,OVC,,0.00,300.0,WeatherDisplay:10.37,2015-01-30 18:12:00,
2015-01-30 12:17:00,36.3,30.4,30.45,ESE,112,6.9,6.9,79,0.00,OVC,,0.00,300.0,WeatherDisplay:10.37,2015-01-30 18:17:00,
2015-01-30 12:22:00,36.7,30.8,30.45,East,90,4.6,4.6,79,0.00,OVC,,0.00,300.0,WeatherDisplay:10.37,2015-01-30 18:22:00,
2015-01-30 12:27:00,37.0,30.8,30.42,ENE,68,5.8,5.8,78,0.00,OVC,,0.00,200.0,WeatherDisplay:10.37,2015-01-30 18:27:00,
2015-01-30 12:30:00,37.0,30.8,30.42,ENE,68,4.6,4.6,78,0.00,OVC,,0.00,200.0,WeatherDisplay:10.37,2015-01-30 18:30:00,
2015-01-30 12:32:00,37.0,30.8,30.42,ENE,68,4.6,4.6,78,0.00,OVC,,0.00,200.0,WeatherDisplay:10.37,2015-01-30 18:32:00,
2015-01-30 12:37:00,37.0,30.8,30.42,ENE,68,4.6,4.6,78,0.00,OVC,,0.00,200.0,WeatherDisplay:10.37,2015-01-30 18:37:00,
2015-01-30 12:55:00,37.0,30.8,30.42,ENE,68,4.6,4.6,78,0.00,OVC,,0.00,200.0,WeatherDisplay:10.37,2015-01-30 18:55:00,
2015-01-30 13:28:00,37.0,30.8,30.42,ENE,68,4.6,4.6,78,0.00,OVC,,0.00,200.0,WeatherDisplay:10.37,2015-01-30 19:28:00,
2015-01-30 13:33:00,37.0,30.8,30.42,ENE,68,4.6,4.6,78,0.00,OVC,,0.00,200.0,WeatherDisplay:10.37,2015-01-30 19:33:00,
2015-01-30 14:02:00,42.8,23.9,30.36,ENE,68,6.2,6.2,47,0.00,OVC,,0.00,200.0,WeatherDisplay:10.37,2015-01-30 20:02:00,
2015-01-30 14:07:00,43.3,33.5,30.36,South,180,2.3,2.3,68,0.00,CLR,OVC,0.00,200.0,WeatherDisplay:10.37,2015-01-30 20:07:00,
2015-01-30 14:13:00,43.7,33.8,30.33,ESE,112,6.9,6.9,68,0.00,CLR,OVC,0.00,200.0,WeatherDisplay:10.37,2015-01-30 20:13:00,
2015-01-30 14:18:00,44.8,34.9,30.33,ESE,112,4.6,4.6,68,0.00,CLR,OVC,0.00,100.0,WeatherDisplay:10.37,2015-01-30 20:18:00,
2015-01-30 14:23:00,44.2,34.0,30.36,ENE,68,2.3,2.3,67,0.00,CLR,OVC,0.00,100.0,WeatherDisplay:10.37,2015-01-30 20:23:00,
2015-01-30 14:28:00,44.2,34.0,30.36,SSE,158,2.3,2.3,67,0.00,FEW,OVC,0.00,100.0,WeatherDisplay:10.37,2015-01-30 20:28:00,
2015-01-30 14:30:00,44.2,34.0,30.36,ENE,68,2.3,2.6,67,0.00,FEW,OVC,0.00,100.0,WeatherDisplay:10.37,2015-01-30 20:30:00,
2015-01-30 14:33:00,44.2,34.0,30.36,ENE,68,2.3,2.6,67,0.00,FEW,OVC,0.00,100.0,WeatherDisplay:10.37,2015-01-30 20:33:00,
2015-01-30 14:38:00,44.2,34.0,30.36,ENE,68,2.3,2.6,67,0.00,FEW,OVC,0.00,100.0,WeatherDisplay:10.37,2015-01-30 20:38:00,
2015-01-30 15:28:00,44.2,34.0,30.36,ENE,68,2.3,2.6,67,0.00,FEW,OVC,0.00,100.0,WeatherDisplay:10.37,2015-01-30 21:28:00,
2015-01-30 15:33:00,44.2,34.0,30.36,ENE,68,2.3,2.6,67,0.00,FEW,OVC,0.00,100.0,WeatherDisplay:10.37,2015-01-30 21:33:00,
2015-01-30 16:03:00,44.4,32.2,30.30,ENE,68,4.6,4.6,62,0.00,OVC,,0.00,0.0,WeatherDisplay:10.37,2015-01-30 22:03:00,
2015-01-30 16:08:00,44.4,33.4,30.30,SE,135,2.3,2.3,65,0.00,OVC,,0.00,0.0,WeatherDisplay:10.37,2015-01-30 22:08:00,
2015-01-30 16:13:00,44.4,33.4,30.30,ENE,68,5.0,5.0,65,0.00,OVC,,0.00,0.0,WeatherDisplay:10.37,2015-01-30 22:13:00,
2015-01-30 16:18:00,43.9,32.9,30.30,ENE,68,2.3,2.3,65,0.00,OVC,,0.00,0.0,WeatherDisplay:10.37,2015-01-30 22:18:00,
2015-01-30 16:23:00,43.9,32.9,30.33,East,90,2.3,2.3,65,0.00,OVC,,0.00,0.0,WeatherDisplay:10.37,2015-01-30 22:23:00,
2015-01-30 16:28:00,43.7,32.7,30.33,SSE,158,1.2,1.2,65,0.00,OVC,,0.00,0.0,WeatherDisplay:10.37,2015-01-30 22:28:00,
2015-01-30 16:33:00,43.5,32.5,30.33,ENE,68,3.5,3.5,65,0.00,OVC,,0.00,0.0,WeatherDisplay:10.37,2015-01-30 22:33:00,
2015-01-30 16:38:00,43.5,32.5,30.33,ENE,68,3.5,3.5,65,0.00,OVC,,0.00,0.0,WeatherDisplay:10.37,2015-01-30 22:38:00,